createdAt,value
2019-02-26T00:01:59.421Z,5.10
2019-02-26T00:04:32.148Z,5.10
2019-02-26T00:07:02.157Z,5.20
2019-02-26T00:09:35.189Z,5.20
2019-02-26T00:12:04.869Z,5.30
2019-02-26T00:14:35.361Z,5.30
2019-02-26T00:17:08.630Z,5.20
2019-02-26T00:19:37.934Z,5.20
2019-02-26T00:22:09.524Z,5.20
2019-02-26T00:24:42.665Z,5.20
2019-02-26T00:27:13.719Z,5.20
2019-02-26T00:29:44.735Z,5.10
2019-02-26T00:32:18.389Z,5.00
2019-02-26T00:34:48.594Z,5.00
2019-02-26T00:37:19.990Z,5.00
2019-02-26T00:39:51.775Z,4.90
2019-02-26T00:42:24.295Z,4.90
2019-02-26T00:44:58.221Z,4.90
2019-02-26T00:47:31.845Z,4.80
2019-02-26T00:50:02.006Z,4.80
2019-02-26T00:52:34.835Z,4.80
2019-02-26T00:55:07.185Z,4.80
2019-02-26T00:57:42.542Z,4.80
2019-02-26T01:00:13.914Z,4.80
2019-02-26T01:02:44.483Z,4.70
2019-02-26T01:05:15.931Z,4.70
2019-02-26T01:07:48.897Z,4.70
2019-02-26T01:10:21.170Z,4.70
2019-02-26T01:12:51.632Z,4.70
2019-02-26T01:15:22.185Z,4.60
2019-02-26T01:17:57.131Z,4.60
2019-02-26T01:20:29.651Z,4.50
2019-02-26T01:22:59.866Z,4.50
2019-02-26T01:25:30.311Z,4.50
2019-02-26T01:28:00.737Z,4.60
2019-02-26T01:30:33.684Z,4.60
2019-02-26T01:33:04.982Z,4.60
2019-02-26T01:35:37.747Z,4.60
2019-02-26T01:38:07.950Z,4.60
2019-02-26T01:40:41.516Z,4.60
2019-02-26T01:43:11.694Z,4.50
2019-02-26T01:45:43.849Z,4.60
2019-02-26T01:48:16.713Z,4.60
2019-02-26T01:50:46.763Z,4.60
2019-02-26T01:53:19.225Z,4.60
2019-02-26T01:55:50.534Z,4.60
2019-02-26T01:58:20.984Z,4.60
2019-02-26T02:00:55.311Z,4.60
2019-02-26T02:03:25.419Z,4.60
2019-02-26T02:05:57.290Z,4.60
2019-02-26T02:08:28.045Z,4.60
2019-02-26T02:10:59.931Z,4.60
2019-02-26T02:13:32.961Z,4.50
2019-02-26T02:16:04.545Z,4.40
2019-02-26T02:18:35.446Z,4.30
2019-02-26T02:21:06.008Z,4.30
2019-02-26T02:23:36.471Z,4.20
2019-02-26T02:26:08.835Z,4.20
2019-02-26T02:28:39.177Z,4.20
2019-02-26T02:31:09.657Z,4.10
2019-02-26T02:33:40.193Z,4.10
2019-02-26T02:36:11.792Z,4.10
2019-02-26T02:38:43.341Z,4.10
2019-02-26T02:41:13.785Z,4.10
2019-02-26T02:43:44.265Z,4.00
2019-02-26T02:46:14.745Z,4.00
2019-02-26T02:48:46.049Z,4.10
2019-02-26T02:51:16.842Z,4.00
2019-02-26T02:53:47.868Z,4.00
2019-02-26T02:56:19.808Z,4.00
2019-02-26T02:58:51.523Z,4.00
2019-02-26T03:01:24.528Z,4.00
2019-02-26T03:03:56.442Z,3.90
2019-02-26T03:06:29.006Z,3.90
2019-02-26T03:08:58.989Z,3.90
2019-02-26T03:11:29.578Z,3.80
2019-02-26T03:14:00.038Z,3.70
2019-02-26T03:16:30.489Z,3.70
2019-02-26T03:19:01.176Z,3.70
2019-02-26T03:21:31.608Z,3.70
2019-02-26T03:24:03.356Z,3.70
2019-02-26T03:26:34.466Z,3.70
2019-02-26T03:29:04.906Z,3.80
2019-02-26T03:31:40.519Z,3.80
2019-02-26T03:34:14.668Z,3.90
2019-02-26T03:36:45.402Z,3.90
2019-02-26T03:39:14.970Z,3.90
2019-02-26T03:41:46.597Z,3.90
2019-02-26T03:44:17.840Z,3.80
2019-02-26T03:46:48.563Z,3.80
2019-02-26T03:49:18.989Z,3.70
2019-02-26T03:51:49.457Z,3.70
2019-02-26T03:54:19.882Z,3.70
2019-02-26T03:56:50.534Z,3.70
2019-02-26T03:59:21.333Z,3.60
2019-02-26T04:01:52.147Z,3.60
2019-02-26T04:04:23.095Z,3.40
2019-02-26T04:06:55.891Z,3.30
2019-02-26T04:09:26.909Z,3.20
2019-02-26T04:11:57.345Z,3.20
2019-02-26T04:14:28.780Z,3.20
2019-02-26T04:17:01.669Z,3.20
2019-02-26T04:19:32.661Z,3.20
2019-02-26T04:22:27.819Z,3.10
2019-02-26T04:25:04.795Z,3.10
2019-02-26T04:27:53.371Z,3.10
2019-02-26T04:30:58.929Z,3.00
2019-02-26T04:34:08.530Z,3.00
2019-02-26T04:37:16.445Z,3.00
2019-02-26T04:40:11.911Z,2.90
2019-02-26T04:43:31.331Z,2.80
2019-02-26T04:46:31.048Z,2.70
2019-02-26T04:49:00.595Z,2.70
2019-02-26T04:51:34.284Z,2.70
2019-02-26T04:54:04.870Z,2.70
2019-02-26T04:56:37.078Z,2.70
2019-02-26T04:59:09.925Z,2.70
2019-02-26T05:01:40.153Z,2.60
2019-02-26T05:04:10.809Z,2.60
2019-02-26T05:06:41.273Z,2.60
2019-02-26T05:09:11.709Z,2.60
2019-02-26T05:11:42.178Z,2.70
2019-02-26T05:14:15.467Z,2.60
2019-02-26T05:16:45.444Z,2.60
2019-02-26T05:19:17.017Z,2.60
2019-02-26T05:21:48.052Z,2.60
2019-02-26T05:24:21.359Z,2.60
2019-02-26T05:26:51.869Z,2.60
2019-02-26T05:29:22.393Z,2.60
2019-02-26T05:31:55.440Z,2.50
2019-02-26T05:34:25.955Z,2.50
2019-02-26T05:36:56.586Z,2.50
2019-02-26T05:39:28.804Z,2.50
2019-02-26T05:42:01.253Z,2.50
2019-02-26T05:44:31.753Z,2.50
2019-02-26T05:47:02.568Z,2.50
2019-02-26T05:49:35.317Z,2.50
2019-02-26T05:52:07.120Z,2.50
2019-02-26T05:54:37.670Z,2.50
2019-02-26T05:57:10.812Z,2.60
2019-02-26T05:59:41.988Z,2.60
2019-02-26T06:02:14.185Z,2.60
2019-02-26T06:04:46.728Z,2.70
2019-02-26T06:07:21.704Z,2.80
2019-02-26T06:09:51.665Z,2.80
2019-02-26T06:12:22.668Z,2.70
2019-02-26T06:14:54.026Z,2.70
2019-02-26T06:17:25.636Z,2.60
2019-02-26T06:20:02.086Z,2.50
2019-02-26T06:22:32.165Z,2.40
2019-02-26T06:25:07.006Z,2.40
2019-02-26T06:27:34.856Z,2.40
2019-02-26T06:30:07.358Z,2.40
2019-02-26T06:32:40.163Z,2.40
2019-02-26T06:35:13.672Z,2.50
2019-02-26T06:37:44.724Z,2.50
2019-02-26T06:40:15.239Z,2.50
2019-02-26T06:42:45.859Z,2.40
2019-02-26T06:45:16.979Z,2.50
2019-02-26T06:47:48.479Z,2.50
2019-02-26T06:50:19.128Z,2.50
2019-02-26T06:52:50.694Z,2.50
2019-02-26T06:55:19.762Z,2.50
2019-02-26T06:57:52.172Z,2.50
2019-02-26T07:00:23.780Z,2.60
2019-02-26T07:02:51.006Z,2.60
2019-02-26T07:05:23.830Z,2.60
2019-02-26T07:07:54.084Z,2.60
2019-02-26T07:10:26.001Z,2.60
2019-02-26T07:12:54.010Z,2.70
2019-02-26T07:15:23.262Z,2.80
2019-02-26T07:17:52.503Z,2.80
2019-02-26T07:20:21.768Z,2.80
2019-02-26T07:22:51.614Z,2.80
2019-02-26T07:25:21.021Z,2.70
2019-02-26T07:27:51.310Z,2.70
2019-02-26T07:30:21.222Z,2.70
2019-02-26T07:32:50.622Z,2.80
2019-02-26T07:35:19.902Z,2.80
2019-02-26T07:37:49.178Z,2.80
2019-02-26T07:40:18.785Z,2.90
2019-02-26T07:42:49.275Z,3.00
2019-02-26T07:45:21.864Z,3.10
2019-02-26T07:47:51.479Z,3.30
2019-02-26T07:50:20.921Z,3.40
2019-02-26T07:52:52.034Z,3.60
2019-02-26T07:55:21.085Z,3.80
2019-02-26T07:57:51.231Z,3.90
2019-02-26T08:00:21.651Z,4.00
2019-02-26T08:02:52.069Z,4.20
2019-02-26T08:05:25.686Z,4.30
2019-02-26T08:07:54.425Z,4.50
2019-02-26T08:10:24.143Z,4.60
2019-02-26T08:12:53.392Z,4.70
2019-02-26T08:15:22.660Z,4.80
2019-02-26T08:17:56.020Z,4.90
2019-02-26T08:20:23.165Z,5.00
2019-02-26T08:22:54.130Z,5.20
2019-02-26T08:25:23.384Z,5.30
2019-02-26T08:27:53.946Z,5.50
2019-02-26T08:30:26.060Z,5.60
2019-02-26T08:32:56.422Z,5.70
2019-02-26T08:35:25.599Z,5.90
2019-02-26T08:37:55.822Z,6.00
2019-02-26T08:40:25.065Z,6.10
2019-02-26T08:42:54.337Z,6.20
2019-02-26T08:45:25.783Z,6.40
2019-02-26T08:47:54.893Z,6.50
2019-02-26T08:50:24.148Z,6.50
2019-02-26T08:52:55.469Z,6.60
2019-02-26T08:55:24.668Z,6.70
2019-02-26T08:57:56.407Z,6.80
2019-02-26T09:00:25.017Z,7.10
2019-02-26T09:02:56.714Z,7.20
2019-02-26T09:05:28.236Z,7.30
2019-02-26T09:07:56.774Z,7.40
2019-02-26T09:10:26.032Z,7.40
2019-02-26T09:12:55.285Z,7.50
2019-02-26T09:15:24.528Z,7.60
2019-02-26T09:17:53.844Z,7.70
2019-02-26T09:20:23.084Z,7.90
2019-02-26T09:22:54.447Z,8.00
2019-02-26T09:25:26.033Z,8.10
2019-02-26T09:27:54.618Z,8.20
2019-02-26T09:30:24.917Z,8.30
2019-02-26T09:32:55.375Z,8.50
2019-02-26T09:35:28.864Z,8.60
2019-02-26T09:38:00.774Z,8.70
2019-02-26T09:40:34.200Z,8.80
2019-02-26T09:43:02.518Z,8.90
2019-02-26T09:45:32.990Z,9.00
2019-02-26T09:48:03.453Z,9.20
2019-02-26T09:50:36.099Z,9.40
2019-02-26T09:53:06.072Z,9.50
2019-02-26T09:55:36.546Z,9.70
2019-02-26T09:58:06.992Z,9.80
2019-02-26T10:00:37.697Z,9.90
2019-02-26T10:03:10.312Z,10.10
2019-02-26T10:05:40.499Z,10.30
2019-02-26T10:08:10.968Z,10.40
2019-02-26T10:10:41.427Z,10.70
2019-02-26T10:13:11.889Z,11.00
2019-02-26T10:15:44.323Z,11.20
2019-02-26T10:18:14.490Z,11.40
2019-02-26T10:20:47.369Z,11.70
2019-02-26T10:23:19.199Z,12.00
2019-02-26T10:25:53.050Z,12.40
2019-02-26T10:28:22.293Z,12.80
2019-02-26T10:30:55.071Z,13.20
2019-02-26T10:33:25.383Z,13.60
2019-02-26T10:35:55.853Z,13.60
2019-02-26T10:38:30.900Z,13.80
2019-02-26T10:40:59.790Z,14.00
2019-02-26T10:43:30.914Z,14.10
2019-02-26T10:46:01.796Z,14.30
2019-02-26T10:48:33.321Z,14.40
2019-02-26T10:51:06.711Z,14.50
2019-02-26T10:53:36.325Z,14.50
2019-02-26T10:56:07.070Z,14.70
2019-02-26T10:58:37.585Z,14.90
2019-02-26T11:01:08.153Z,15.30
2019-02-26T11:03:43.419Z,15.80
2019-02-26T11:06:14.468Z,16.40
2019-02-26T11:08:43.546Z,17.00
2019-02-26T11:11:16.557Z,17.60
2019-02-26T11:13:50.969Z,18.40
2019-02-26T11:16:25.189Z,18.70
2019-02-26T11:18:50.863Z,19.20
2019-02-26T11:21:21.309Z,19.70
2019-02-26T11:23:51.778Z,20.20
2019-02-26T11:26:22.295Z,20.60
2019-02-26T11:28:52.746Z,20.90
2019-02-26T11:31:25.516Z,21.30
2019-02-26T11:33:57.279Z,21.60
2019-02-26T11:36:28.186Z,21.80
2019-02-26T11:39:02.274Z,21.80
2019-02-26T11:41:35.870Z,22.00
2019-02-26T11:44:09.865Z,22.10
2019-02-26T11:46:38.274Z,22.20
2019-02-26T11:49:09.389Z,22.30
2019-02-26T11:51:42.473Z,22.50
2019-02-26T11:54:15.015Z,22.90
2019-02-26T11:56:47.395Z,23.20
2019-02-26T11:59:19.403Z,23.20
2019-02-26T12:01:49.794Z,23.50
2019-02-26T12:04:20.482Z,23.70
2019-02-26T12:06:50.930Z,23.60
2019-02-26T12:09:21.389Z,23.50
2019-02-26T12:11:51.845Z,23.70
2019-02-26T12:14:22.279Z,23.50
2019-02-26T12:16:52.988Z,23.40
2019-02-26T12:19:25.661Z,23.50
2019-02-26T12:21:57.525Z,23.80
2019-02-26T12:24:30.776Z,24.00
2019-02-26T12:27:07.249Z,24.20
2019-02-26T12:29:40.211Z,24.20
2019-02-26T12:32:10.850Z,24.60
2019-02-26T12:34:44.623Z,25.00
2019-02-26T12:37:13.785Z,25.30
2019-02-26T12:39:46.502Z,25.60
2019-02-26T12:42:18.464Z,25.60
2019-02-26T12:44:48.929Z,25.80
2019-02-26T12:47:21.768Z,26.00
2019-02-26T12:49:51.587Z,26.10
2019-02-26T12:52:26.499Z,26.40
2019-02-26T12:54:54.952Z,26.80
2019-02-26T12:57:28.883Z,27.20
2019-02-26T12:59:59.344Z,27.40
2019-02-26T13:02:30.755Z,27.70
2019-02-26T13:05:01.198Z,27.90
2019-02-26T13:07:32.724Z,28.10
2019-02-26T13:10:04.119Z,28.20
2019-02-26T13:12:35.097Z,28.20
2019-02-26T13:15:09.760Z,27.80
2019-02-26T13:17:38.754Z,27.90
2019-02-26T13:20:11.865Z,27.90
2019-02-26T13:25:17.133Z,26.90
2019-02-26T13:27:48.222Z,27.20
2019-02-26T13:30:21.226Z,27.20
2019-02-26T13:32:57.224Z,27.30
2019-02-26T13:35:23.985Z,27.80
2019-02-26T13:37:54.694Z,28.20
2019-02-26T13:40:25.296Z,28.30
2019-02-26T13:45:28.149Z,27.60
2019-02-26T13:48:01.274Z,27.80
2019-02-26T13:50:31.102Z,28.00
2019-02-26T13:53:01.561Z,28.30
2019-02-26T13:55:33.004Z,28.60
2019-02-26T13:58:11.386Z,28.80
2019-02-26T14:00:36.021Z,28.60
2019-02-26T14:03:06.497Z,28.60
2019-02-26T14:05:38.378Z,28.50
2019-02-26T14:08:08.937Z,28.30
2019-02-26T14:10:39.395Z,28.10
2019-02-26T14:13:09.851Z,27.70
2019-02-26T14:15:40.829Z,26.60
2019-02-26T14:18:11.281Z,25.20
2019-02-26T14:20:42.642Z,24.30
2019-02-26T14:23:13.458Z,23.40
2019-02-26T14:25:44.313Z,22.60
2019-02-26T14:28:15.094Z,21.90
2019-02-26T14:30:46.013Z,21.20
2019-02-26T14:33:16.461Z,20.60
2019-02-26T14:35:46.986Z,20.20
2019-02-26T14:38:18.399Z,19.80
2019-02-26T14:40:48.843Z,19.50
2019-02-26T14:43:19.277Z,19.20
2019-02-26T14:45:49.724Z,19.00
2019-02-26T14:48:20.429Z,18.80
2019-02-26T14:50:50.873Z,18.70
2019-02-26T14:53:22.306Z,18.80
2019-02-26T14:55:53.180Z,18.90
2019-02-26T14:58:23.754Z,18.80
2019-02-26T15:00:57.657Z,18.60
2019-02-26T15:03:26.341Z,18.60
2019-02-26T15:05:56.785Z,18.50
2019-02-26T15:08:27.698Z,18.30
2019-02-26T15:10:58.441Z,18.10
2019-02-26T15:13:29.222Z,17.90
2019-02-26T15:15:59.655Z,17.80
2019-02-26T15:18:30.216Z,17.80
2019-02-26T15:21:00.662Z,17.60
2019-02-26T15:23:31.387Z,17.60
2019-02-26T15:26:01.835Z,17.90
2019-02-26T15:28:32.285Z,18.30
2019-02-26T15:31:02.758Z,18.40
2019-02-26T15:33:33.216Z,18.30
2019-02-26T15:36:03.654Z,18.10
2019-02-26T15:38:34.104Z,18.00
2019-02-26T15:41:04.942Z,17.80
2019-02-26T15:43:35.632Z,17.70
2019-02-26T15:46:06.413Z,17.60
2019-02-26T15:48:37.718Z,17.40
2019-02-26T15:51:14.382Z,17.30
2019-02-26T15:53:40.330Z,17.20
2019-02-26T15:56:10.773Z,17.00
2019-02-26T15:58:41.273Z,16.90
2019-02-26T16:01:12.791Z,16.70
2019-02-26T16:03:45.279Z,16.60
2019-02-26T16:06:15.773Z,16.40
2019-02-26T16:08:46.362Z,16.30
2019-02-26T16:11:16.806Z,16.10
2019-02-26T16:13:47.874Z,16.00
2019-02-26T16:16:18.386Z,15.80
2019-02-26T16:18:48.838Z,15.70
2019-02-26T16:21:19.521Z,15.50
2019-02-26T16:23:50.006Z,15.40
2019-02-26T16:26:20.478Z,15.30
2019-02-26T16:28:50.940Z,15.20
2019-02-26T16:31:22.045Z,15.10
2019-02-26T16:33:52.518Z,15.00
2019-02-26T16:36:22.978Z,14.80
2019-02-26T16:38:53.460Z,14.70
2019-02-26T16:41:24.043Z,14.50
2019-02-26T16:43:54.535Z,14.40
2019-02-26T16:46:24.997Z,14.30
2019-02-26T16:48:55.788Z,14.10
2019-02-26T16:51:26.227Z,14.00
2019-02-26T16:53:56.770Z,13.90
2019-02-26T16:56:27.232Z,13.70
2019-02-26T16:58:57.861Z,13.60
2019-02-26T17:01:28.395Z,13.40
2019-02-26T17:03:59.817Z,13.20
2019-02-26T17:06:30.505Z,13.10
2019-02-26T17:09:01.141Z,13.00
2019-02-26T17:11:33.181Z,12.90
2019-02-26T17:14:05.065Z,12.80
2019-02-26T17:16:35.502Z,12.60
2019-02-26T17:19:05.952Z,12.50
2019-02-26T17:21:36.374Z,12.40
2019-02-26T17:24:06.891Z,12.20
2019-02-26T17:26:39.242Z,12.10
2019-02-26T17:29:10.008Z,12.00
2019-02-26T17:31:40.455Z,11.90
2019-02-26T17:34:10.943Z,11.80
2019-02-26T17:36:41.418Z,11.70
2019-02-26T17:39:11.874Z,11.70
2019-02-26T17:41:44.695Z,11.60
2019-02-26T17:44:14.563Z,11.50
2019-02-26T17:46:44.998Z,11.30
2019-02-26T17:49:15.453Z,11.30
2019-02-26T17:51:45.913Z,11.20
2019-02-26T17:54:16.590Z,11.10
2019-02-26T17:56:47.054Z,11.00
2019-02-26T17:59:17.510Z,10.90
2019-02-26T18:01:50.346Z,10.80
2019-02-26T18:04:23.054Z,10.80
2019-02-26T18:06:52.934Z,10.70
2019-02-26T18:09:23.393Z,10.60
2019-02-26T18:11:53.841Z,10.60
2019-02-26T18:14:24.317Z,10.70
2019-02-26T18:16:54.778Z,10.60
2019-02-26T18:19:25.472Z,10.60
2019-02-26T18:21:55.905Z,10.60
2019-02-26T18:24:26.394Z,10.60
2019-02-26T18:26:56.841Z,10.60
2019-02-26T18:29:27.344Z,10.60
2019-02-26T18:31:57.785Z,10.60
2019-02-26T18:34:28.286Z,10.60
2019-02-26T18:36:58.740Z,10.50
2019-02-26T18:39:29.575Z,10.40
2019-02-26T18:42:00.564Z,10.40
2019-02-26T18:44:31.104Z,10.30
2019-02-26T18:47:01.705Z,10.20
2019-02-26T18:49:32.868Z,10.10
2019-02-26T18:52:03.700Z,10.00
2019-02-26T18:54:34.242Z,9.90
2019-02-26T18:57:04.797Z,9.90
2019-02-26T18:59:35.308Z,9.80
2019-02-26T19:02:05.770Z,9.80
2019-02-26T19:04:36.214Z,9.70
2019-02-26T19:07:06.655Z,9.60
2019-02-26T19:09:37.168Z,9.60
2019-02-26T19:12:07.670Z,9.50
2019-02-26T19:14:41.983Z,9.50
2019-02-26T19:17:10.376Z,9.40
2019-02-26T19:19:42.059Z,9.40
2019-02-26T19:22:12.975Z,9.30
2019-02-26T19:24:43.588Z,9.30
2019-02-26T19:27:14.048Z,9.30
2019-02-26T19:29:44.540Z,9.20
2019-02-26T19:32:15.719Z,9.20
2019-02-26T19:34:47.937Z,9.10
2019-02-26T19:37:19.124Z,9.10
2019-02-26T19:39:50.796Z,9.00
2019-02-26T19:42:21.110Z,9.00
2019-02-26T19:44:50.517Z,9.00
2019-02-26T19:47:20.516Z,8.90
2019-02-26T19:49:51.014Z,8.80
2019-02-26T19:52:20.361Z,8.70
2019-02-26T19:54:49.660Z,8.60
2019-02-26T19:57:18.990Z,8.60
2019-02-26T19:59:48.648Z,8.50
2019-02-26T20:02:17.893Z,8.40
2019-02-26T20:04:49.776Z,8.30
2019-02-26T20:07:19.349Z,8.30
2019-02-26T20:09:48.749Z,8.20
2019-02-26T20:12:18.126Z,8.20
2019-02-26T20:14:48.990Z,8.00
2019-02-26T20:17:18.715Z,7.90
2019-02-26T20:19:48.149Z,7.90
2019-02-26T20:22:18.943Z,7.90
2019-02-26T20:24:48.397Z,7.80
2019-02-26T20:27:21.616Z,7.80
2019-02-26T20:29:48.995Z,7.70
2019-02-26T20:32:18.983Z,7.70
2019-02-26T20:34:48.557Z,7.70
2019-02-26T20:37:17.962Z,7.60
2019-02-26T20:39:47.658Z,7.70
2019-02-26T20:42:17.085Z,7.70
2019-02-26T20:44:46.517Z,7.60
2019-02-26T20:47:16.046Z,7.60
2019-02-26T20:49:46.306Z,7.70
2019-02-26T20:52:17.466Z,7.60
2019-02-26T20:54:46.902Z,7.60
2019-02-26T20:57:16.455Z,7.60
2019-02-26T20:59:45.934Z,7.60
2019-02-26T21:02:15.361Z,7.50
2019-02-26T21:04:45.211Z,7.50
2019-02-26T21:07:14.740Z,7.40
2019-02-26T21:09:44.170Z,7.30
2019-02-26T21:12:13.605Z,7.20
2019-02-26T21:14:43.128Z,7.20
2019-02-26T21:17:12.598Z,7.10
2019-02-26T21:19:42.374Z,7.00
2019-02-26T21:22:12.102Z,7.00
2019-02-26T21:24:42.183Z,7.00
2019-02-26T21:27:12.119Z,7.00
2019-02-26T21:29:41.681Z,6.90
2019-02-26T21:32:11.054Z,6.80
2019-02-26T21:34:40.506Z,6.70
2019-02-26T21:37:10.111Z,6.70
2019-02-26T21:39:46.974Z,6.70
2019-02-26T21:42:16.466Z,6.70
2019-02-26T21:44:46.010Z,6.70
2019-02-26T21:47:15.486Z,6.70
2019-02-26T21:49:46.583Z,6.60
2019-02-26T21:52:16.037Z,6.60
2019-02-26T21:54:45.754Z,6.60
2019-02-26T21:57:15.386Z,6.60
2019-02-26T21:59:55.787Z,6.60
2019-02-26T22:02:25.423Z,6.50
2019-02-26T22:04:55.089Z,6.50
2019-02-26T22:07:24.569Z,6.50
2019-02-26T22:09:54.173Z,6.40
2019-02-26T22:12:24.118Z,6.30
2019-02-26T22:14:54.339Z,6.30
2019-02-26T22:17:25.334Z,6.20
2019-02-26T22:19:55.630Z,6.20
2019-02-26T22:22:26.213Z,6.10
2019-02-26T22:24:57.786Z,6.10
2019-02-26T22:27:27.310Z,6.10
2019-02-26T22:29:56.814Z,6.10
2019-02-26T22:32:26.430Z,6.00
2019-02-26T22:34:56.742Z,6.00
2019-02-26T22:37:26.245Z,6.00
2019-02-26T22:39:55.914Z,6.00
2019-02-26T22:42:26.548Z,5.90
2019-02-26T22:44:56.218Z,5.90
2019-02-26T22:47:25.694Z,5.90
2019-02-26T22:49:55.195Z,5.80
2019-02-26T22:52:25.242Z,5.80
2019-02-26T22:54:54.904Z,5.70
2019-02-26T22:57:24.326Z,5.70
2019-02-26T22:59:53.794Z,5.70
2019-02-26T23:02:24.117Z,5.70
2019-02-26T23:04:53.822Z,5.60
2019-02-26T23:07:23.341Z,5.60
2019-02-26T23:09:54.004Z,5.60
2019-02-26T23:12:24.697Z,5.50
2019-02-26T23:14:54.242Z,5.50
2019-02-26T23:17:24.971Z,5.50
2019-02-26T23:19:55.133Z,5.50
2019-02-26T23:22:24.673Z,5.40
2019-02-26T23:24:54.121Z,5.40
2019-02-26T23:27:23.692Z,5.40
2019-02-26T23:29:53.220Z,5.30
2019-02-26T23:32:23.561Z,5.30
2019-02-26T23:35:04.435Z,5.30
2019-02-26T23:37:34.543Z,5.20
2019-02-26T23:40:05.395Z,5.20
2019-02-26T23:42:38.603Z,5.20
2019-02-26T23:45:07.474Z,5.10
2019-02-26T23:47:36.917Z,5.10
2019-02-26T23:50:06.363Z,5.00
2019-02-26T23:52:35.897Z,5.00
2019-02-26T23:55:05.346Z,4.90
2019-02-26T23:57:34.782Z,5.00
